createdAt,value
2018-11-13T00:00:49.027Z,987.20
2018-11-13T00:01:48.986Z,987.18
2018-11-13T00:02:48.957Z,987.19
2018-11-13T00:03:48.980Z,987.20
2018-11-13T00:04:48.889Z,987.18
2018-11-13T00:05:48.865Z,987.23
2018-11-13T00:06:48.832Z,987.20
2018-11-13T00:07:48.774Z,987.21
2018-11-13T00:08:48.722Z,987.23
2018-11-13T00:09:48.690Z,987.21
2018-11-13T00:10:48.643Z,987.27
2018-11-13T00:11:48.613Z,987.22
2018-11-13T00:12:48.571Z,987.26
2018-11-13T00:13:48.539Z,987.26
2018-11-13T00:14:48.502Z,987.22
2018-11-13T00:15:48.461Z,987.24
2018-11-13T00:16:48.422Z,987.22
2018-11-13T00:17:48.397Z,987.21
2018-11-13T00:18:48.348Z,987.23
2018-11-13T00:19:48.314Z,987.23
2018-11-13T00:20:48.271Z,987.20
2018-11-13T00:21:48.240Z,987.24
2018-11-13T00:22:48.202Z,987.22
2018-11-13T00:23:48.171Z,987.26
2018-11-13T00:24:48.132Z,987.27
2018-11-13T00:25:48.107Z,987.27
2018-11-13T00:26:48.089Z,987.29
2018-11-13T00:27:48.036Z,987.30
2018-11-13T00:28:47.994Z,987.32
2018-11-13T00:29:47.954Z,987.34
2018-11-13T00:30:47.907Z,987.34
2018-11-13T00:31:47.866Z,987.36
2018-11-13T00:32:47.843Z,987.36
2018-11-13T00:33:47.809Z,987.39
2018-11-13T00:34:47.772Z,987.41
2018-11-13T00:35:47.729Z,987.39
2018-11-13T00:36:47.705Z,987.33
2018-11-13T00:37:47.650Z,987.31
2018-11-13T00:38:47.617Z,987.28
2018-11-13T00:39:47.569Z,987.25
2018-11-13T00:40:47.528Z,987.25
2018-11-13T00:41:47.500Z,987.28
2018-11-13T00:42:47.464Z,987.28
2018-11-13T00:43:47.427Z,987.26
2018-11-13T00:44:47.378Z,987.26
2018-11-13T00:45:47.346Z,987.27
2018-11-13T00:46:47.369Z,987.25
2018-11-13T00:47:47.336Z,987.23
2018-11-13T00:48:47.227Z,987.22
2018-11-13T00:49:47.220Z,987.26
2018-11-13T00:50:47.149Z,987.26
2018-11-13T00:51:47.115Z,987.30
2018-11-13T00:52:47.082Z,987.28
2018-11-13T00:53:47.036Z,987.28
2018-11-13T00:54:47.027Z,987.28
2018-11-13T00:55:46.990Z,987.28
2018-11-13T00:56:47.759Z,987.22
2018-11-13T00:57:46.904Z,987.20
2018-11-13T00:58:46.872Z,987.19
2018-11-13T00:59:46.820Z,987.17
2018-11-13T01:00:46.839Z,987.12
2018-11-13T01:01:46.767Z,987.12
2018-11-13T01:02:46.710Z,987.09
2018-11-13T01:03:46.687Z,987.08
2018-11-13T01:04:46.650Z,987.08
2018-11-13T01:05:46.606Z,987.14
2018-11-13T01:06:46.564Z,987.14
2018-11-13T01:07:46.621Z,987.11
2018-11-13T01:08:46.483Z,987.16
2018-11-13T01:09:46.439Z,987.15
2018-11-13T01:10:46.398Z,987.14
2018-11-13T01:11:46.438Z,987.21
2018-11-13T01:12:46.327Z,987.20
2018-11-13T01:13:46.287Z,987.22
2018-11-13T01:14:46.278Z,987.27
2018-11-13T01:15:46.210Z,987.32
2018-11-13T01:16:46.178Z,987.37
2018-11-13T01:17:46.138Z,987.38
2018-11-13T01:18:46.089Z,987.43
2018-11-13T01:19:46.068Z,987.42
2018-11-13T01:20:46.026Z,987.45
2018-11-13T01:21:45.986Z,987.40
2018-11-13T01:22:45.947Z,987.40
2018-11-13T01:23:45.943Z,987.43
2018-11-13T01:24:45.871Z,987.46
2018-11-13T01:25:45.844Z,987.48
2018-11-13T01:26:45.823Z,987.46
2018-11-13T01:27:45.766Z,987.48
2018-11-13T01:28:45.736Z,987.47
2018-11-13T01:29:45.678Z,987.49
2018-11-13T01:30:45.648Z,987.49
2018-11-13T01:31:45.625Z,987.49
2018-11-13T01:32:45.580Z,987.49
2018-11-13T01:33:45.544Z,987.51
2018-11-13T01:34:45.510Z,987.56
2018-11-13T01:35:45.462Z,987.57
2018-11-13T01:36:45.420Z,987.60
2018-11-13T01:37:45.401Z,987.59
2018-11-13T01:38:45.348Z,987.60
2018-11-13T01:39:45.327Z,987.61
2018-11-13T01:40:45.296Z,987.65
2018-11-13T01:41:45.381Z,987.60
2018-11-13T01:42:45.205Z,987.57
2018-11-13T01:43:45.159Z,987.54
2018-11-13T01:44:45.126Z,987.50
2018-11-13T01:45:45.091Z,987.45
2018-11-13T01:46:45.045Z,987.48
2018-11-13T01:47:45.047Z,987.43
2018-11-13T01:48:44.984Z,987.43
2018-11-13T01:49:44.951Z,987.44
2018-11-13T01:50:44.900Z,987.45
2018-11-13T01:51:44.870Z,987.45
2018-11-13T01:52:44.829Z,987.47
2018-11-13T01:53:44.777Z,987.46
2018-11-13T01:54:44.738Z,987.46
2018-11-13T01:55:44.714Z,987.44
2018-11-13T01:56:44.673Z,987.38
2018-11-13T01:57:44.647Z,987.40
2018-11-13T01:58:44.625Z,987.39
2018-11-13T01:59:44.564Z,987.36
2018-11-13T02:00:44.530Z,987.37
2018-11-13T02:01:44.483Z,987.42
2018-11-13T02:02:44.460Z,987.43
2018-11-13T02:03:44.427Z,987.44
2018-11-13T02:04:44.382Z,987.48
2018-11-13T02:05:44.360Z,987.49
2018-11-13T02:06:44.291Z,987.48
2018-11-13T02:07:44.269Z,987.44
2018-11-13T02:08:44.229Z,987.41
2018-11-13T02:09:44.190Z,987.35
2018-11-13T02:10:44.174Z,987.27
2018-11-13T02:11:44.120Z,987.35
2018-11-13T02:12:44.090Z,987.37
2018-11-13T02:13:44.024Z,987.36
2018-11-13T02:14:43.989Z,987.40
2018-11-13T02:15:43.945Z,987.38
2018-11-13T02:16:43.910Z,987.40
2018-11-13T02:17:43.888Z,987.35
2018-11-13T02:18:43.846Z,987.32
2018-11-13T02:19:43.805Z,987.19
2018-11-13T02:20:43.766Z,987.12
2018-11-13T02:21:43.737Z,987.06
2018-11-13T02:22:43.688Z,987.13
2018-11-13T02:23:43.656Z,987.20
2018-11-13T02:24:43.611Z,987.28
2018-11-13T02:25:43.587Z,987.37
2018-11-13T02:26:43.541Z,987.48
2018-11-13T02:27:43.502Z,987.52
2018-11-13T02:28:43.488Z,987.50
2018-11-13T02:29:43.441Z,987.47
2018-11-13T02:30:43.395Z,987.39
2018-11-13T02:31:43.350Z,987.28
2018-11-13T02:32:43.329Z,987.23
2018-11-13T02:33:43.284Z,987.17
2018-11-13T02:34:43.254Z,987.10
2018-11-13T02:35:43.311Z,987.04
2018-11-13T02:36:43.172Z,987.04
2018-11-13T02:37:43.147Z,987.07
2018-11-13T02:38:43.091Z,987.13
2018-11-13T02:39:43.077Z,987.12
2018-11-13T02:40:43.083Z,987.07
2018-11-13T02:41:43.042Z,987.10
2018-11-13T02:42:42.945Z,987.07
2018-11-13T02:43:42.907Z,987.05
2018-11-13T02:44:42.861Z,987.11
2018-11-13T02:45:42.824Z,987.11
2018-11-13T02:46:42.786Z,987.09
2018-11-13T02:47:42.739Z,987.09
2018-11-13T02:48:43.029Z,987.12
2018-11-13T02:49:42.764Z,987.18
2018-11-13T02:50:42.641Z,987.24
2018-11-13T02:51:42.593Z,987.36
2018-11-13T02:52:42.549Z,987.40
2018-11-13T02:53:42.514Z,987.47
2018-11-13T02:54:42.499Z,987.50
2018-11-13T02:55:42.455Z,987.59
2018-11-13T02:56:42.451Z,987.67
2018-11-13T02:57:42.409Z,987.74
2018-11-13T02:58:42.326Z,987.78
2018-11-13T02:59:42.304Z,987.71
2018-11-13T03:00:42.269Z,987.62
2018-11-13T03:01:42.220Z,987.54
2018-11-13T03:02:42.191Z,987.43
2018-11-13T03:03:42.137Z,987.38
2018-11-13T03:04:42.154Z,987.41
2018-11-13T03:05:42.068Z,987.49
2018-11-13T03:06:42.046Z,987.52
2018-11-13T03:07:41.995Z,987.51
2018-11-13T03:08:41.965Z,987.47
2018-11-13T03:09:41.908Z,987.44
2018-11-13T03:10:41.879Z,987.41
2018-11-13T03:11:41.874Z,987.34
2018-11-13T03:12:41.830Z,987.34
2018-11-13T03:13:41.827Z,987.31
2018-11-13T03:14:41.733Z,987.30
2018-11-13T03:15:41.674Z,987.31
2018-11-13T03:16:41.637Z,987.35
2018-11-13T03:17:41.609Z,987.33
2018-11-13T03:18:41.575Z,987.35
2018-11-13T03:19:41.540Z,987.36
2018-11-13T03:20:41.507Z,987.40
2018-11-13T03:21:41.457Z,987.48
2018-11-13T03:22:41.428Z,987.45
2018-11-13T03:23:41.387Z,987.43
2018-11-13T03:24:41.355Z,987.48
2018-11-13T03:25:41.302Z,987.48
2018-11-13T03:26:41.272Z,987.45
2018-11-13T03:27:41.228Z,987.44
2018-11-13T03:28:41.190Z,987.39
2018-11-13T03:29:41.166Z,987.31
2018-11-13T03:30:41.168Z,987.30
2018-11-13T03:31:41.179Z,987.27
2018-11-13T03:32:41.038Z,987.31
2018-11-13T03:33:41.009Z,987.34
2018-11-13T03:34:40.981Z,987.42
2018-11-13T03:35:40.933Z,987.38
2018-11-13T03:36:40.903Z,987.42
2018-11-13T03:37:40.859Z,987.46
2018-11-13T03:38:40.839Z,987.45
2018-11-13T03:39:40.773Z,987.44
2018-11-13T03:40:40.743Z,987.42
2018-11-13T03:41:40.722Z,987.48
2018-11-13T03:42:40.655Z,987.44
2018-11-13T03:43:40.639Z,987.45
2018-11-13T03:44:40.597Z,987.47
2018-11-13T03:45:40.550Z,987.45
2018-11-13T03:46:40.512Z,987.43
2018-11-13T03:47:40.469Z,987.48
2018-11-13T03:48:40.441Z,987.49
2018-11-13T03:49:40.390Z,987.50
2018-11-13T03:50:40.364Z,987.48
2018-11-13T03:51:40.326Z,987.46
2018-11-13T03:52:40.304Z,987.40
2018-11-13T03:53:40.244Z,987.37
2018-11-13T03:54:40.225Z,987.35
2018-11-13T03:55:40.168Z,987.33
2018-11-13T03:56:40.127Z,987.32
2018-11-13T03:57:40.098Z,987.29
2018-11-13T03:58:40.050Z,987.30
2018-11-13T03:59:40.024Z,987.29
2018-11-13T04:00:39.985Z,987.34
2018-11-13T04:01:39.955Z,987.30
2018-11-13T04:02:39.906Z,987.25
2018-11-13T04:03:39.873Z,987.26
2018-11-13T04:04:39.855Z,987.25
2018-11-13T04:05:39.799Z,987.29
2018-11-13T04:06:39.778Z,987.28
2018-11-13T04:07:39.728Z,987.26
2018-11-13T04:08:39.711Z,987.28
2018-11-13T04:09:39.651Z,987.31
2018-11-13T04:10:39.619Z,987.32
2018-11-13T04:11:39.575Z,987.33
2018-11-13T04:12:39.569Z,987.34
2018-11-13T04:13:39.511Z,987.24
2018-11-13T04:14:39.465Z,987.27
2018-11-13T04:15:39.424Z,987.29
2018-11-13T04:16:39.385Z,987.28
2018-11-13T04:17:39.351Z,987.24
2018-11-13T04:18:39.297Z,987.23
2018-11-13T04:19:39.267Z,987.18
2018-11-13T04:20:39.242Z,987.17
2018-11-13T04:21:39.222Z,987.19
2018-11-13T04:22:39.184Z,987.19
2018-11-13T04:23:39.132Z,987.17
2018-11-13T04:24:39.136Z,987.19
2018-11-13T04:25:39.059Z,987.16
2018-11-13T04:26:39.021Z,987.18
2018-11-13T04:27:38.981Z,987.23
2018-11-13T04:28:38.942Z,987.24
2018-11-13T04:29:38.899Z,987.25
2018-11-13T04:30:38.899Z,987.23
2018-11-13T04:31:38.830Z,987.28
2018-11-13T04:32:38.807Z,987.31
2018-11-13T04:33:38.759Z,987.31
2018-11-13T04:34:38.734Z,987.34
2018-11-13T04:35:38.683Z,987.36
2018-11-13T04:36:38.642Z,987.39
2018-11-13T04:37:38.617Z,987.40
2018-11-13T04:38:38.615Z,987.45
2018-11-13T04:39:38.522Z,987.43
2018-11-13T04:40:38.499Z,987.35
2018-11-13T04:41:38.483Z,987.32
2018-11-13T04:42:38.409Z,987.31
2018-11-13T04:43:38.401Z,987.34
2018-11-13T04:44:38.341Z,987.31
2018-11-13T04:45:38.318Z,987.31
2018-11-13T04:46:38.281Z,987.31
2018-11-13T04:47:38.219Z,987.37
2018-11-13T04:48:38.191Z,987.44
2018-11-13T04:49:38.158Z,987.48
2018-11-13T04:50:38.102Z,987.48
2018-11-13T04:51:38.092Z,987.50
2018-11-13T04:52:38.039Z,987.49
2018-11-13T04:53:38.008Z,987.44
2018-11-13T04:54:37.949Z,987.41
2018-11-13T04:55:37.923Z,987.44
2018-11-13T04:56:37.885Z,987.44
2018-11-13T04:57:37.842Z,987.46
2018-11-13T04:58:37.815Z,987.49
2018-11-13T04:59:37.769Z,987.47
2018-11-13T05:00:37.734Z,987.44
2018-11-13T05:01:37.700Z,987.44
2018-11-13T05:02:37.719Z,987.42
2018-11-13T05:03:37.644Z,987.45
2018-11-13T05:04:37.628Z,987.46
2018-11-13T05:05:37.564Z,987.51
2018-11-13T05:06:37.562Z,987.55
2018-11-13T05:07:37.479Z,987.57
2018-11-13T05:08:37.460Z,987.59
2018-11-13T05:09:37.416Z,987.60
2018-11-13T05:10:37.378Z,987.59
2018-11-13T05:11:37.341Z,987.62
2018-11-13T05:12:37.300Z,987.62
2018-11-13T05:13:37.284Z,987.62
2018-11-13T05:14:37.229Z,987.61
2018-11-13T05:15:37.211Z,987.59
2018-11-13T05:16:37.150Z,987.62
2018-11-13T05:17:37.115Z,987.62
2018-11-13T05:18:37.068Z,987.66
2018-11-13T05:19:37.061Z,987.66
2018-11-13T05:20:37.020Z,987.65
2018-11-13T05:21:36.987Z,987.66
2018-11-13T05:22:36.937Z,987.68
2018-11-13T05:23:36.865Z,987.67
2018-11-13T05:24:36.849Z,987.77
2018-11-13T05:25:36.812Z,987.79
2018-11-13T05:26:36.762Z,987.70
2018-11-13T05:27:36.727Z,987.71
2018-11-13T05:28:36.690Z,987.79
2018-11-13T05:29:36.644Z,987.86
2018-11-13T05:30:36.611Z,987.97
2018-11-13T05:31:36.593Z,987.97
2018-11-13T05:32:36.534Z,988.02
2018-11-13T05:33:36.512Z,988.14
2018-11-13T05:34:36.469Z,988.18
2018-11-13T05:35:36.470Z,988.16
2018-11-13T05:36:36.430Z,988.16
2018-11-13T05:37:36.347Z,988.19
2018-11-13T05:38:36.331Z,988.18
2018-11-13T05:39:36.271Z,988.10
2018-11-13T05:40:36.240Z,988.01
2018-11-13T05:41:36.322Z,988.03
2018-11-13T05:42:36.160Z,988.14
2018-11-13T05:43:36.127Z,988.14
2018-11-13T05:44:36.082Z,988.12
2018-11-13T05:45:36.064Z,988.12
2018-11-13T05:46:36.039Z,988.12
2018-11-13T05:47:36.001Z,988.19
2018-11-13T05:48:35.944Z,988.17
2018-11-13T05:49:35.925Z,988.21
2018-11-13T05:50:35.872Z,988.22
2018-11-13T05:51:35.846Z,988.21
2018-11-13T05:52:35.791Z,988.21
2018-11-13T05:53:35.770Z,988.13
2018-11-13T05:54:35.732Z,988.14
2018-11-13T05:55:35.664Z,988.16
2018-11-13T05:56:35.634Z,988.15
2018-11-13T05:57:35.604Z,988.16
2018-11-13T05:58:35.592Z,988.19
2018-11-13T05:59:35.554Z,988.20
2018-11-13T06:00:35.537Z,988.28
2018-11-13T06:01:35.461Z,988.24
2018-11-13T06:02:35.434Z,988.23
2018-11-13T06:03:35.388Z,988.27
2018-11-13T06:04:35.392Z,988.28
2018-11-13T06:05:35.311Z,988.28
2018-11-13T06:06:35.267Z,988.24
2018-11-13T06:07:35.254Z,988.27
2018-11-13T06:08:35.231Z,988.21
2018-11-13T06:09:35.191Z,988.21
2018-11-13T06:10:35.127Z,988.27
2018-11-13T06:11:35.145Z,988.31
2018-11-13T06:12:35.087Z,988.45
2018-11-13T06:13:35.057Z,988.45
2018-11-13T06:14:34.965Z,988.45
2018-11-13T06:15:34.934Z,988.45
2018-11-13T06:16:34.907Z,988.44
2018-11-13T06:17:34.876Z,988.42
2018-11-13T06:18:34.809Z,988.47
2018-11-13T06:19:34.781Z,988.44
2018-11-13T06:20:34.763Z,988.42
2018-11-13T06:21:34.732Z,988.46
2018-11-13T06:22:34.683Z,988.60
2018-11-13T06:23:34.640Z,988.57
2018-11-13T06:24:34.615Z,988.58
2018-11-13T06:25:34.550Z,988.64
2018-11-13T06:26:34.526Z,988.67
2018-11-13T06:27:34.498Z,988.61
2018-11-13T06:28:34.471Z,988.58
2018-11-13T06:29:34.519Z,988.57
2018-11-13T06:30:34.364Z,988.69
2018-11-13T06:31:34.362Z,988.71
2018-11-13T06:32:34.328Z,988.69
2018-11-13T06:33:34.277Z,988.70
2018-11-13T06:34:34.231Z,988.67
2018-11-13T06:35:34.201Z,988.73
2018-11-13T06:36:34.153Z,988.67
2018-11-13T06:37:34.135Z,988.71
2018-11-13T06:38:34.094Z,988.70
2018-11-13T06:39:34.044Z,988.74
2018-11-13T06:40:34.005Z,988.73
2018-11-13T06:41:33.972Z,988.69
2018-11-13T06:42:33.926Z,988.74
2018-11-13T06:43:33.894Z,988.79
2018-11-13T06:44:33.864Z,988.78
2018-11-13T06:45:33.822Z,988.78
2018-11-13T06:46:33.795Z,988.78
2018-11-13T06:47:33.734Z,988.77
2018-11-13T06:48:33.714Z,988.82
2018-11-13T06:49:33.778Z,988.80
2018-11-13T06:50:33.628Z,988.83
2018-11-13T06:51:33.603Z,988.82
2018-11-13T06:52:33.556Z,988.73
2018-11-13T06:53:33.516Z,988.70
2018-11-13T06:54:33.478Z,988.76
2018-11-13T06:55:33.439Z,988.81
2018-11-13T06:56:33.422Z,988.83
2018-11-13T06:57:33.375Z,988.84
2018-11-13T06:58:33.336Z,988.88
2018-11-13T06:59:33.289Z,988.91
2018-11-13T07:00:33.268Z,988.93
2018-11-13T07:01:33.218Z,988.93
2018-11-13T07:02:33.194Z,988.95
2018-11-13T07:03:33.176Z,988.89
2018-11-13T07:04:33.097Z,988.96
2018-11-13T07:05:33.084Z,988.95
2018-11-13T07:06:33.042Z,988.92
2018-11-13T07:07:33.016Z,989.03
2018-11-13T07:08:32.951Z,989.03
2018-11-13T07:09:32.974Z,989.06
2018-11-13T07:10:32.892Z,988.99
2018-11-13T07:11:32.858Z,989.05
2018-11-13T07:12:32.822Z,989.05
2018-11-13T07:13:32.781Z,989.07
2018-11-13T07:14:32.744Z,989.06
2018-11-13T07:15:32.728Z,989.04
2018-11-13T07:16:32.686Z,989.02
2018-11-13T07:17:32.618Z,989.06
2018-11-13T07:18:32.648Z,989.10
2018-11-13T07:19:32.564Z,989.09
2018-11-13T07:20:32.505Z,989.08
2018-11-13T07:21:32.471Z,989.06
2018-11-13T07:22:32.440Z,989.13
2018-11-13T07:23:32.402Z,989.20
2018-11-13T07:24:32.361Z,989.23
2018-11-13T07:25:32.363Z,989.20
2018-11-13T07:26:32.294Z,989.22
2018-11-13T07:27:32.338Z,989.22
2018-11-13T07:28:32.215Z,989.23
2018-11-13T07:29:32.176Z,989.23
2018-11-13T07:30:32.134Z,989.24
2018-11-13T07:31:32.100Z,989.27
2018-11-13T07:32:32.064Z,989.29
2018-11-13T07:33:32.068Z,989.29
2018-11-13T07:34:32.160Z,989.32
2018-11-13T07:35:31.973Z,989.29
2018-11-13T07:36:31.927Z,989.33
2018-11-13T07:37:31.887Z,989.33
2018-11-13T07:38:31.849Z,989.37
2018-11-13T07:39:31.806Z,989.34
2018-11-13T07:40:31.768Z,989.36
2018-11-13T07:41:31.737Z,989.40
2018-11-13T07:42:31.710Z,989.39
2018-11-13T07:43:31.648Z,989.41
2018-11-13T07:44:31.634Z,989.40
2018-11-13T07:45:31.593Z,989.38
2018-11-13T07:46:31.574Z,989.43
2018-11-13T07:47:31.678Z,989.48
2018-11-13T07:48:31.482Z,989.52
2018-11-13T07:49:31.435Z,989.56
2018-11-13T07:50:31.393Z,989.61
2018-11-13T07:51:31.375Z,989.61
2018-11-13T07:52:31.335Z,989.63
2018-11-13T07:53:31.282Z,989.63
2018-11-13T07:54:31.269Z,989.66
2018-11-13T07:55:31.199Z,989.72
2018-11-13T07:56:31.175Z,989.71
2018-11-13T07:57:31.135Z,989.70
2018-11-13T07:58:31.110Z,989.75
2018-11-13T07:59:31.063Z,989.74
2018-11-13T08:00:31.035Z,989.74
2018-11-13T08:01:30.995Z,989.71
2018-11-13T08:02:30.964Z,989.68
2018-11-13T08:03:30.924Z,989.65
2018-11-13T08:04:30.886Z,989.69
2018-11-13T08:05:30.858Z,989.70
2018-11-13T08:06:30.842Z,989.70
2018-11-13T08:07:30.773Z,989.67
2018-11-13T08:08:30.729Z,989.69
2018-11-13T08:09:30.781Z,989.68
2018-11-13T08:15:07.501Z,989.72
2018-11-13T08:16:07.453Z,989.69
2018-11-13T08:18:00.441Z,989.69
2018-11-13T08:19:00.375Z,989.61
2018-11-13T08:20:00.335Z,989.57
2018-11-13T08:21:00.330Z,989.43
2018-11-13T08:22:00.343Z,989.43
2018-11-13T08:23:00.245Z,989.47
2018-11-13T08:24:00.194Z,989.46
2018-11-13T08:25:00.165Z,989.56
2018-11-13T08:26:00.120Z,989.56
2018-11-13T08:27:00.151Z,989.55
2018-11-13T08:28:00.108Z,989.51
2018-11-13T08:29:00.116Z,989.50
2018-11-13T08:29:59.990Z,989.53
2018-11-13T08:30:59.933Z,989.56
2018-11-13T08:31:59.899Z,989.62
2018-11-13T08:32:59.867Z,989.74
2018-11-13T08:33:59.832Z,989.83
2018-11-13T08:34:59.864Z,989.86
2018-11-13T08:35:59.755Z,989.87
2018-11-13T08:36:59.730Z,989.83
2018-11-13T08:38:00.257Z,989.81
2018-11-13T08:38:59.675Z,989.82
2018-11-13T08:39:59.611Z,989.85
2018-11-13T08:40:59.604Z,989.87
2018-11-13T08:41:59.557Z,989.99
2018-11-13T08:42:59.509Z,990.01
2018-11-13T08:43:59.492Z,990.02
2018-11-13T08:44:59.433Z,990.02
2018-11-13T08:45:59.450Z,990.04
2018-11-13T08:46:59.365Z,990.03
2018-11-13T08:48:00.259Z,990.02
2018-11-13T08:48:59.316Z,990.03
2018-11-13T08:49:59.229Z,990.03
2018-11-13T08:50:59.191Z,990.02
2018-11-13T08:51:59.155Z,990.04
2018-11-13T08:52:59.102Z,990.04
2018-11-13T08:53:59.093Z,990.05
2018-11-13T08:54:59.051Z,990.08
2018-11-13T08:55:59.021Z,990.08
2018-11-13T08:56:58.963Z,990.09
2018-11-13T08:57:58.922Z,990.11
2018-11-13T08:58:59.010Z,990.15
2018-11-13T08:59:58.864Z,990.19
2018-11-13T09:00:58.823Z,990.28
2018-11-13T09:01:58.769Z,990.19
2018-11-13T09:02:58.748Z,990.21
2018-11-13T09:03:58.706Z,990.22
2018-11-13T09:04:58.718Z,990.19
2018-11-13T09:05:58.645Z,990.23
2018-11-13T09:06:58.606Z,990.23
2018-11-13T09:07:58.558Z,990.26
2018-11-13T09:08:58.530Z,990.23
2018-11-13T09:09:58.486Z,990.21
2018-11-13T09:10:58.482Z,990.23
2018-11-13T09:11:58.537Z,990.32
2018-11-13T09:12:58.373Z,990.33
2018-11-13T09:13:58.336Z,990.33
2018-11-13T09:14:58.298Z,990.37
2018-11-13T09:15:58.276Z,990.36
2018-11-13T09:16:58.207Z,990.38
2018-11-13T09:17:58.221Z,990.43
2018-11-13T09:18:58.194Z,990.46
2018-11-13T09:19:58.145Z,990.48
2018-11-13T09:20:58.082Z,990.46
2018-11-13T09:21:58.038Z,990.41
2018-11-13T09:22:57.987Z,990.41
2018-11-13T09:23:57.962Z,990.42
2018-11-13T09:24:57.928Z,990.39
2018-11-13T09:25:57.891Z,990.45
2018-11-13T09:26:57.872Z,990.46
2018-11-13T09:27:57.825Z,990.45
2018-11-13T09:28:57.777Z,990.51
2018-11-13T09:29:57.855Z,990.50
2018-11-13T09:30:58.013Z,990.53
2018-11-13T09:31:57.726Z,990.54
2018-11-13T09:32:57.659Z,990.52
2018-11-13T09:33:57.604Z,990.53
2018-11-13T09:34:57.556Z,990.51
2018-11-13T09:35:57.518Z,990.57
2018-11-13T09:36:57.485Z,990.60
2018-11-13T09:37:57.437Z,990.63
2018-11-13T09:38:57.420Z,990.64
2018-11-13T09:39:57.383Z,990.69
2018-11-13T09:40:57.342Z,990.69
2018-11-13T09:41:57.312Z,990.68
2018-11-13T09:42:57.279Z,990.80
2018-11-13T09:43:57.242Z,990.80
2018-11-13T09:44:57.327Z,990.79
2018-11-13T09:45:57.207Z,990.87
2018-11-13T09:46:57.122Z,990.92
2018-11-13T09:47:57.078Z,990.93
2018-11-13T09:48:57.039Z,990.90
2018-11-13T09:49:57.013Z,990.92
2018-11-13T09:50:56.971Z,990.92
2018-11-13T09:51:56.965Z,990.80
2018-11-13T09:52:56.895Z,990.77
2018-11-13T09:53:56.856Z,990.75
2018-11-13T09:54:56.817Z,990.64
2018-11-13T09:55:56.780Z,990.61
2018-11-13T09:56:56.756Z,990.64
2018-11-13T09:57:56.714Z,990.64
2018-11-13T09:58:56.686Z,990.63
2018-11-13T09:59:56.709Z,990.62
2018-11-13T10:00:56.843Z,990.67
2018-11-13T10:01:57.005Z,990.77
2018-11-13T10:02:57.286Z,990.84
2018-11-13T10:03:57.228Z,990.87
2018-11-13T10:04:57.219Z,990.88
2018-11-13T10:05:56.516Z,990.86
2018-11-13T10:06:56.423Z,990.79
2018-11-13T10:07:56.342Z,990.78
2018-11-13T10:08:56.307Z,990.76
2018-11-13T10:09:56.266Z,990.78
2018-11-13T10:10:56.258Z,990.91
2018-11-13T10:11:56.199Z,990.97
2018-11-13T10:12:56.152Z,991.04
2018-11-13T10:13:56.790Z,991.13
2018-11-13T10:14:56.092Z,991.19
2018-11-13T10:15:56.120Z,991.23
2018-11-13T10:16:56.029Z,991.21
2018-11-13T10:17:56.099Z,991.26
2018-11-13T10:18:55.964Z,991.25
2018-11-13T10:19:55.917Z,991.26
2018-11-13T10:20:55.885Z,991.19
2018-11-13T10:21:55.846Z,991.19
2018-11-13T10:22:55.820Z,991.18
2018-11-13T10:23:55.785Z,991.16
2018-11-13T10:24:55.745Z,991.09
2018-11-13T10:25:55.706Z,991.02
2018-11-13T10:26:55.819Z,990.99
2018-11-13T10:27:55.622Z,991.02
2018-11-13T10:28:55.592Z,991.08
2018-11-13T10:29:55.560Z,991.17
2018-11-13T10:30:55.508Z,991.24
2018-11-13T10:31:55.486Z,991.25
2018-11-13T10:32:55.441Z,991.18
2018-11-13T10:33:55.409Z,991.15
2018-11-13T10:34:55.361Z,991.11
2018-11-13T10:35:55.341Z,991.02
2018-11-13T10:36:55.280Z,991.02
2018-11-13T10:37:55.247Z,990.94
2018-11-13T10:38:55.245Z,990.96
2018-11-13T10:39:55.221Z,990.98
2018-11-13T10:40:55.185Z,991.02
2018-11-13T10:41:55.158Z,991.08
2018-11-13T10:42:55.113Z,991.06
2018-11-13T10:43:55.060Z,991.07
2018-11-13T10:44:55.025Z,991.11
2018-11-13T10:45:54.979Z,991.06
2018-11-13T10:46:54.954Z,991.03
2018-11-13T10:47:54.915Z,990.96
2018-11-13T10:48:54.920Z,990.99
2018-11-13T10:49:54.839Z,991.09
2018-11-13T10:50:54.804Z,991.14
2018-11-13T10:51:54.744Z,991.19
2018-11-13T10:52:54.725Z,991.19
2018-11-13T10:53:54.684Z,991.16
2018-11-13T10:54:54.642Z,991.16
2018-11-13T10:55:54.600Z,991.17
2018-11-13T10:56:54.579Z,991.23
2018-11-13T10:57:54.542Z,991.28
2018-11-13T10:58:54.500Z,991.28
2018-11-13T10:59:54.490Z,991.34
2018-11-13T11:00:54.444Z,991.34
2018-11-13T11:01:54.443Z,991.33
2018-11-13T11:02:54.432Z,991.37
2018-11-13T11:03:54.318Z,991.38
2018-11-13T11:04:54.284Z,991.43
2018-11-13T11:05:54.253Z,991.40
2018-11-13T11:06:54.232Z,991.41
2018-11-13T11:07:54.195Z,991.36
2018-11-13T11:08:54.142Z,991.37
2018-11-13T11:09:54.113Z,991.37
2018-11-13T11:10:54.059Z,991.35
2018-11-13T11:11:54.028Z,991.33
2018-11-13T11:12:54.071Z,991.35
2018-11-13T11:13:54.087Z,991.37
2018-11-13T11:14:53.913Z,991.40
2018-11-13T11:15:53.881Z,991.39
2018-11-13T11:16:53.845Z,991.46
2018-11-13T11:17:53.810Z,991.51
2018-11-13T11:18:53.871Z,991.54
2018-11-13T11:19:53.825Z,991.52
2018-11-13T11:20:53.720Z,991.47
2018-11-13T11:21:53.669Z,991.48
2018-11-13T11:22:53.660Z,991.38
2018-11-13T11:23:53.655Z,991.37
2018-11-13T11:24:53.543Z,991.38
2018-11-13T11:25:53.522Z,991.44
2018-11-13T11:26:53.496Z,991.46
2018-11-13T11:27:53.497Z,991.53
2018-11-13T11:28:53.407Z,991.56
2018-11-13T11:29:53.399Z,991.55
2018-11-13T11:30:53.375Z,991.51
2018-11-13T11:31:53.284Z,991.48
2018-11-13T11:32:53.277Z,991.47
2018-11-13T11:33:53.205Z,991.53
2018-11-13T11:34:53.176Z,991.59
2018-11-13T11:35:53.145Z,991.58
2018-11-13T11:36:53.132Z,991.60
2018-11-13T11:37:53.084Z,991.62
2018-11-13T11:38:53.222Z,991.63
2018-11-13T11:39:52.994Z,991.67
2018-11-13T11:40:52.969Z,991.63
2018-11-13T11:41:52.969Z,991.56
2018-11-13T11:42:52.885Z,991.51
2018-11-13T11:43:52.879Z,991.54
2018-11-13T11:44:52.812Z,991.57
2018-11-13T11:45:52.800Z,991.50
2018-11-13T11:46:52.752Z,991.52
2018-11-13T11:47:52.746Z,991.50
2018-11-13T11:48:52.692Z,991.50
2018-11-13T11:49:52.688Z,991.49
2018-11-13T11:50:52.617Z,991.51
2018-11-13T11:51:52.565Z,991.53
2018-11-13T11:52:52.552Z,991.42
2018-11-13T11:53:52.604Z,991.41
2018-11-13T11:54:52.466Z,991.44
2018-11-13T11:55:52.428Z,991.47
2018-11-13T11:56:52.385Z,991.51
2018-11-13T11:57:52.355Z,991.52
2018-11-13T11:58:52.312Z,991.46
2018-11-13T11:59:52.268Z,991.44
2018-11-13T12:00:52.320Z,991.49
2018-11-13T12:01:52.189Z,991.46
2018-11-13T12:02:52.158Z,991.46
2018-11-13T12:03:52.120Z,991.50
2018-11-13T12:04:52.095Z,991.52
2018-11-13T12:05:52.048Z,991.50
2018-11-13T12:06:52.022Z,991.57
2018-11-13T12:07:51.963Z,991.54
2018-11-13T12:08:51.945Z,991.60
2018-11-13T12:09:51.908Z,991.62
2018-11-13T12:10:51.859Z,991.61
2018-11-13T12:11:51.856Z,991.62
2018-11-13T12:12:51.781Z,991.63
2018-11-13T12:13:51.772Z,991.63
2018-11-13T12:14:51.728Z,991.59
2018-11-13T12:15:51.677Z,991.61
2018-11-13T12:16:51.673Z,991.66
2018-11-13T12:17:51.602Z,991.65
2018-11-13T12:18:51.647Z,991.64
2018-11-13T12:19:51.528Z,991.63
2018-11-13T12:20:51.504Z,991.67
2018-11-13T12:21:51.480Z,991.63
2018-11-13T12:22:51.485Z,991.62
2018-11-13T12:23:51.377Z,991.62
2018-11-13T12:24:51.391Z,991.55
2018-11-13T12:25:51.369Z,991.58
2018-11-13T12:26:51.273Z,991.50
2018-11-13T12:27:51.261Z,991.53
2018-11-13T12:28:51.218Z,991.51
2018-11-13T12:29:51.156Z,991.52
2018-11-13T12:30:51.128Z,991.50
2018-11-13T12:31:51.104Z,991.50
2018-11-13T12:32:51.046Z,991.51
2018-11-13T12:33:51.013Z,991.52